createdAt,value
2022-12-18T00:02:08.230Z,-3.80
2022-12-18T00:07:11.020Z,-3.90
2022-12-18T00:17:18.853Z,-3.80
2022-12-18T00:22:21.573Z,-3.90
2022-12-18T00:27:24.202Z,-3.90
2022-12-18T00:32:26.880Z,-3.90
2022-12-18T00:37:29.530Z,-3.80
2022-12-18T00:42:50.571Z,-3.80
2022-12-18T00:47:53.310Z,-3.80
2022-12-18T00:52:55.981Z,-3.90
2022-12-18T00:57:58.703Z,-3.80
2022-12-18T01:03:01.535Z,-3.90
2022-12-18T01:08:04.765Z,-3.90
2022-12-18T01:13:07.494Z,-3.80
2022-12-18T01:18:10.204Z,-3.90
2022-12-18T01:23:12.898Z,-3.90
2022-12-18T01:28:15.544Z,-3.80
2022-12-18T01:33:18.225Z,-3.90
2022-12-18T01:38:21.021Z,-3.90
2022-12-18T01:43:23.893Z,-3.80
2022-12-18T01:48:26.544Z,-3.80
2022-12-18T01:53:29.844Z,-3.80
2022-12-18T01:58:41.863Z,-3.80
2022-12-18T02:03:45.634Z,-3.80
2022-12-18T02:08:55.676Z,-3.80
2022-12-18T02:14:38.769Z,-3.80
2022-12-18T02:19:46.977Z,-3.80
2022-12-18T02:25:22.865Z,-3.80
2022-12-18T02:30:26.026Z,-3.80
2022-12-18T02:35:31.611Z,-3.80
2022-12-18T02:40:38.364Z,-3.80
2022-12-18T02:45:59.340Z,-3.80
2022-12-18T02:51:14.826Z,-3.90
2022-12-18T02:56:27.436Z,-3.90
2022-12-18T03:01:53.729Z,-3.90
2022-12-18T03:07:06.395Z,-3.80
2022-12-18T03:12:24.197Z,-3.80
2022-12-18T03:17:32.019Z,-3.90
2022-12-18T03:22:38.602Z,-3.90
2022-12-18T03:27:47.723Z,-3.90
2022-12-18T03:33:11.973Z,-3.90
2022-12-18T03:38:19.862Z,-3.90
2022-12-18T03:43:50.044Z,-3.90
2022-12-18T03:49:09.997Z,-3.90
2022-12-18T03:54:14.130Z,-3.90
2022-12-18T03:59:27.406Z,-3.80
2022-12-18T04:04:32.233Z,-3.80
2022-12-18T04:09:39.615Z,-3.80
2022-12-18T04:14:42.603Z,-3.80
2022-12-18T04:19:46.043Z,-3.80
2022-12-18T04:24:48.904Z,-3.80
2022-12-18T04:30:00.357Z,-3.90
2022-12-18T04:35:05.358Z,-3.90
2022-12-18T04:40:09.598Z,-3.90
2022-12-18T04:45:17.474Z,-3.90
2022-12-18T04:50:21.281Z,-3.90
2022-12-18T04:55:23.834Z,-4.00
2022-12-18T05:00:26.580Z,-4.00
2022-12-18T05:05:29.498Z,-4.10
2022-12-18T05:10:37.760Z,-4.10
2022-12-18T05:15:41.169Z,-4.10
2022-12-18T05:20:43.949Z,-4.10
2022-12-18T05:25:57.058Z,-4.10
2022-12-18T05:31:01.613Z,-4.10
2022-12-18T05:36:07.254Z,-4.10
2022-12-18T05:41:10.678Z,-4.00
2022-12-18T05:46:16.283Z,-4.00
2022-12-18T05:51:21.327Z,-4.00
2022-12-18T05:56:24.806Z,-4.00
2022-12-18T06:01:28.195Z,-4.00
2022-12-18T06:06:31.267Z,-3.90
2022-12-18T06:11:33.942Z,-3.90
2022-12-18T06:16:36.757Z,-3.90
2022-12-18T06:21:39.405Z,-3.90
2022-12-18T06:26:42.431Z,-3.90
2022-12-18T06:31:45.039Z,-3.90
2022-12-18T06:36:47.751Z,-3.90
2022-12-18T06:41:50.384Z,-3.90
2022-12-18T06:46:53.013Z,-3.80
2022-12-18T06:51:55.593Z,-3.80
2022-12-18T06:56:58.275Z,-3.70
2022-12-18T07:02:01.099Z,-3.80
2022-12-18T07:07:04.175Z,-3.60
2022-12-18T07:12:08.032Z,-3.60
2022-12-18T07:17:10.846Z,-3.50
2022-12-18T07:22:13.695Z,-3.40
2022-12-18T07:27:16.450Z,-3.40
2022-12-18T07:32:19.127Z,-3.40
2022-12-18T07:37:22.155Z,-3.20
2022-12-18T07:42:33.584Z,-3.00
2022-12-18T07:47:39.741Z,-3.00
2022-12-18T07:52:42.448Z,-2.80
2022-12-18T07:57:55.388Z,-2.70
2022-12-18T08:03:00.698Z,-2.60
2022-12-18T08:08:03.548Z,-2.40
2022-12-18T08:13:06.239Z,-2.30
2022-12-18T08:18:13.885Z,-2.20
2022-12-18T08:23:17.268Z,-2.30
2022-12-18T08:28:19.887Z,-2.20
2022-12-18T08:33:22.561Z,-1.90
2022-12-18T08:38:25.504Z,-1.80
2022-12-18T08:43:47.248Z,-1.60
2022-12-18T08:48:52.312Z,-1.60
2022-12-18T08:53:54.968Z,-1.30
2022-12-18T08:58:58.203Z,-1.20
2022-12-18T09:04:00.926Z,-1.20
2022-12-18T09:09:05.179Z,-1.30
2022-12-18T09:14:07.929Z,-1.10
2022-12-18T09:19:11.464Z,-1.20
2022-12-18T09:24:15.339Z,-0.80
2022-12-18T09:29:18.988Z,-0.60
2022-12-18T09:34:23.110Z,-0.60
2022-12-18T09:39:25.868Z,-0.20
2022-12-18T09:44:45.423Z,-0.40
2022-12-18T09:49:56.438Z,0.30
2022-12-18T09:55:10.927Z,1.00
2022-12-18T10:00:21.729Z,3.10
2022-12-18T10:05:33.408Z,7.50
2022-12-18T10:10:49.140Z,6.60
2022-12-18T10:16:13.730Z,6.30
2022-12-18T10:21:59.526Z,9.30
2022-12-18T10:27:18.572Z,9.90
2022-12-18T10:32:24.581Z,11.40
2022-12-18T10:37:29.737Z,10.90
2022-12-18T10:42:32.785Z,11.00
2022-12-18T10:47:35.849Z,10.50
2022-12-18T10:52:43.454Z,9.30
2022-12-18T10:57:47.967Z,10.80
2022-12-18T11:02:51.320Z,10.50
2022-12-18T11:07:55.549Z,9.30
2022-12-18T11:13:11.972Z,8.90
2022-12-18T11:18:23.547Z,6.80
2022-12-18T11:23:28.193Z,6.50
2022-12-18T11:28:38.416Z,7.30
2022-12-18T11:34:04.873Z,7.80
2022-12-18T11:39:21.417Z,8.60
2022-12-18T11:44:36.945Z,8.50
2022-12-18T11:49:42.677Z,7.90
2022-12-18T11:54:45.950Z,8.60
2022-12-18T12:00:14.424Z,8.20
2022-12-18T12:05:40.067Z,8.10
2022-12-18T12:11:01.307Z,6.60
2022-12-18T12:16:18.517Z,7.60
2022-12-18T12:21:35.070Z,6.80
2022-12-18T12:26:47.158Z,6.90
2022-12-18T12:32:18.958Z,5.90
2022-12-18T12:37:46.347Z,6.50
2022-12-18T12:43:16.416Z,6.50
2022-12-18T12:48:33.978Z,5.00
2022-12-18T12:53:40.422Z,4.70
2022-12-18T12:58:44.049Z,4.70
2022-12-18T13:04:05.188Z,4.40
2022-12-18T13:09:08.048Z,3.30
2022-12-18T13:14:23.146Z,2.20
2022-12-18T13:19:28.121Z,1.30
2022-12-18T13:24:33.595Z,0.60
2022-12-18T13:29:47.496Z,0.20
2022-12-18T13:35:10.309Z,-0.40
2022-12-18T13:40:42.758Z,-0.80
2022-12-18T13:46:07.721Z,-1.30
2022-12-18T13:51:12.498Z,-1.50
2022-12-18T13:56:21.181Z,-1.90
2022-12-18T14:01:25.624Z,-2.30
2022-12-18T14:06:28.613Z,-2.80
2022-12-18T14:11:31.580Z,-3.10
2022-12-18T14:16:36.050Z,-3.30
2022-12-18T14:21:39.800Z,-3.80
2022-12-18T14:26:43.869Z,-4.00
2022-12-18T14:31:46.652Z,-4.30
2022-12-18T14:36:57.361Z,-4.50
2022-12-18T14:42:00.132Z,-4.80
2022-12-18T14:47:02.831Z,-5.10
2022-12-18T14:52:18.945Z,-5.30
2022-12-18T14:57:30.617Z,-5.60
2022-12-18T15:02:36.855Z,-5.50
2022-12-18T15:07:53.500Z,-5.10
2022-12-18T15:13:03.608Z,-5.00
2022-12-18T15:18:14.278Z,-5.10
2022-12-18T15:23:24.508Z,-5.20
2022-12-18T15:28:30.709Z,-5.40
2022-12-18T15:33:42.522Z,-5.40
2022-12-18T15:38:49.929Z,-5.80
2022-12-18T15:43:53.918Z,-5.90
2022-12-18T15:49:02.132Z,-6.00
2022-12-18T15:54:10.508Z,-6.20
2022-12-18T15:59:16.434Z,-6.30
2022-12-18T16:04:23.830Z,-6.30
2022-12-18T16:09:26.745Z,-6.30
2022-12-18T16:14:32.468Z,-6.50
2022-12-18T16:19:35.081Z,-6.40
2022-12-18T16:24:38.709Z,-6.60
2022-12-18T16:29:41.617Z,-6.90
2022-12-18T16:34:45.128Z,-7.10
2022-12-18T16:39:47.849Z,-7.10
2022-12-18T16:44:51.019Z,-7.20
2022-12-18T16:49:53.874Z,-7.50
2022-12-18T16:54:56.856Z,-7.60
2022-12-18T17:00:04.741Z,-7.70
2022-12-18T17:05:08.330Z,-7.70
2022-12-18T17:10:11.179Z,-7.80
2022-12-18T17:15:14.586Z,-7.80
2022-12-18T17:20:17.659Z,-8.10
2022-12-18T17:25:22.928Z,-8.60
2022-12-18T17:30:27.089Z,-8.60
2022-12-18T17:35:30.794Z,-8.50
2022-12-18T17:40:34.589Z,-8.30
2022-12-18T17:45:39.049Z,-8.00
2022-12-18T17:50:42.068Z,-7.90
2022-12-18T17:55:44.885Z,-7.80
2022-12-18T18:00:48.056Z,-7.70
2022-12-18T18:08:01.830Z,-7.80
2022-12-18T18:13:46.667Z,-7.80
2022-12-18T18:18:49.928Z,-8.00
2022-12-18T18:23:52.747Z,-8.10
2022-12-18T18:28:56.099Z,-8.20
2022-12-18T18:33:59.539Z,-8.10
2022-12-18T18:39:02.427Z,-8.00
2022-12-18T18:44:05.459Z,-8.10
2022-12-18T18:49:08.270Z,-8.10
2022-12-18T18:54:11.237Z,-8.10
2022-12-18T18:59:14.020Z,-8.10
2022-12-18T19:04:16.792Z,-8.10
2022-12-18T19:09:19.559Z,-8.20
2022-12-18T19:14:22.653Z,-8.30
2022-12-18T19:19:25.596Z,-8.70
2022-12-18T20:00:30.400Z,-10.50
2022-12-18T20:05:33.351Z,-10.80
2022-12-18T20:10:36.190Z,-10.90
2022-12-18T20:15:43.489Z,-10.80
2022-12-18T20:20:48.186Z,-10.90
2022-12-18T20:25:54.180Z,-11.00
2022-12-18T20:31:06.719Z,-11.20
2022-12-18T20:36:15.570Z,-11.30
2022-12-18T20:41:23.831Z,-11.20
2022-12-18T20:46:26.716Z,-10.80
2022-12-18T20:51:30.866Z,-10.30
2022-12-18T20:56:33.780Z,-10.50
2022-12-18T21:01:36.675Z,-10.20
2022-12-18T21:06:42.854Z,-9.90
2022-12-18T21:12:05.888Z,-10.10
2022-12-18T21:17:08.771Z,-10.50
2022-12-18T21:22:12.207Z,-10.60
2022-12-18T21:27:16.456Z,-10.60
2022-12-18T21:32:20.868Z,-10.50
2022-12-18T21:37:41.491Z,-10.30
2022-12-18T21:43:03.049Z,-9.70
2022-12-18T21:48:06.149Z,-9.60
2022-12-18T21:53:09.222Z,-9.90
2022-12-18T21:58:12.002Z,-10.60
2022-12-18T22:03:18.321Z,-11.20
2022-12-18T22:08:21.861Z,-11.70
2022-12-18T22:13:24.588Z,-12.20
2022-12-18T22:18:27.679Z,-12.40
2022-12-18T22:23:31.117Z,-12.60
2022-12-18T22:28:52.204Z,-12.40
2022-12-18T22:33:55.014Z,-12.00
2022-12-18T22:38:57.592Z,-11.50
2022-12-18T22:44:00.212Z,-11.60
2022-12-18T22:49:02.940Z,-11.10
2022-12-18T22:54:05.753Z,-11.10
2022-12-18T22:59:09.439Z,-10.90
2022-12-18T23:04:12.516Z,-10.80
2022-12-18T23:09:17.823Z,-11.10
2022-12-18T23:14:21.067Z,-11.80
2022-12-18T23:19:24.412Z,-12.60
2022-12-18T23:24:27.072Z,-13.10
2022-12-18T23:29:29.718Z,-13.50
2022-12-18T23:34:32.388Z,-13.80
2022-12-18T23:39:35.017Z,-13.90
2022-12-18T23:44:37.657Z,-14.10
2022-12-18T23:49:40.384Z,-14.20
2022-12-18T23:54:43.684Z,-14.10
2022-12-18T23:59:46.384Z,-14.20
